Date,TemperatureHighF,TemperatureAvgF,TemperatureLowF,DewpointHighF,DewpointAvgF,DewpointLowF,HumidityHigh,HumidityAvg,HumidityLow,PressureMaxIn,PressureMinIn,WindSpeedMaxMPH,WindSpeedAvgMPH,GustSpeedMaxMPH,PrecipitationSumIn
2013-2-1,36,34,33,33,32,31,95,93,90,30.50,30.23,6,0,6,0.00
2013-2-2,34,32,31,33,30,29,100,93,87,30.55,30.30,5,0,5,0.00
2013-2-3,35,32,29,32,30,28,97,93,89,30.31,30.13,5,0,5,0.00
2013-2-4,38,35,32,34,33,31,95,91,84,30.14,30.01,6,0,6,0.00
2013-2-5,44,37,33,37,34,31,96,89,75,30.02,29.78,7,0,7,0.00
2013-2-6,44,38,33,35,33,30,92,83,69,30.07,29.87,9,1,9,0.02
2013-2-7,40,36,33,38,34,32,97,94,88,30.06,29.94,4,0,4,0.04
2013-2-8,43,35,28,34,32,26,97,87,68,30.17,30.06,10,1,10,0.00
2013-2-9,38,29,25,32,27,23,100,90,76,30.25,30.07,5,0,5,0.00
2013-2-10,41,29,21,32,26,19,95,88,72,30.36,30.23,6,0,6,0.00
2013-2-11,35,33,31,32,29,27,93,86,81,30.28,30.23,5,0,5,0.00
2013-2-12,40,36,32,33,31,30,92,85,74,30.31,30.12,9,1,9,0.00
2013-2-13,45,35,27,37,31,25,95,86,68,30.40,30.13,4,0,4,0.00
2013-2-14,43,31,25,32,27,23,93,85,63,30.57,30.39,4,0,4,0.00
2013-2-15,50,36,27,36,30,25,93,82,57,30.59,30.32,5,0,5,0.00
2013-2-16,45,34,26,37,31,25,95,89,73,30.32,29.92,12,0,12,0.03
2013-2-17,47,34,28,39,29,24,97,84,51,30.15,29.96,10,0,10,0.01
2013-2-18,40,33,25,30,27,22,89,79,63,30.14,29.82,5,0,5,0.00
2013-2-19,39,34,31,36,32,29,100,93,87,29.90,29.76,6,0,6,0.08
2013-2-20,44,32,25,32,27,23,96,83,53,30.03,29.89,5,0,5,0.00
2013-2-21,36,30,24,33,28,22,99,91,87,30.06,29.98,4,0,4,0.03
2013-2-22,39,35,30,37,33,29,95,91,72,30.00,29.56,14,1,14,0.11
2013-2-23,47,37,28,31,28,25,89,72,46,30.24,29.62,12,1,12,0.01
2013-2-24,40,33,23,32,27,20,94,81,69,30.34,30.06,12,1,12,0.00
2013-2-25,42,37,31,37,32,28,94,84,73,30.11,29.87,9,1,9,0.06
2013-2-26,46,36,28,32,29,26,94,77,57,30.30,30.11,13,1,13,0.00
2013-2-27,50,38,29,34,30,26,93,73,49,30.29,30.21,7,0,7,0.04
2013-2-28,43,37,33,38,35,32,96,93,76,30.36,30.25,5,0,5,0.14